Date,TemperatureHighF,TemperatureAvgF,TemperatureLowF,DewpointHighF,DewpointAvgF,DewpointLowF,HumidityHigh,HumidityAvg,HumidityLow,PressureMaxIn,PressureMinIn,WindSpeedMaxMPH,WindSpeedAvgMPH,GustSpeedMaxMPH,PrecipitationSumIn
2013-3-1,54,47,42,53,46,42,100,98,87,30.22,30.16,9,1,9,0.08
2013-3-2,46,42,34,46,42,33,100,98,84,30.19,30.03,17,5,24,0.04
2013-3-3,44,38,30,41,36,30,100,90,79,30.26,30.15,16,6,17,0.04
2013-3-4,43,34,27,39,33,27,100,96,83,30.26,29.90,8,3,9,0.00
2013-3-5,44,37,31,41,36,31,100,97,85,29.90,29.71,9,3,9,0.05
2013-3-6,39,38,37,39,38,37,100,100,99,29.83,29.59,4,0,0,0.05
2013-3-7,44,40,35,43,39,35,100,98,91,30.07,29.83,8,1,10,0.51
2013-3-8,44,39,33,42,38,33,100,96,87,30.20,30.06,9,3,9,0.03
2013-3-9,46,39,30,43,38,30,100,95,88,30.45,30.20,9,3,10,0.00
2013-3-10,41,39,37,41,39,37,100,99,95,30.45,30.36,7,1,7,0.13
2013-3-11,45,40,35,44,40,35,100,99,93,30.39,30.05,7,0,7,0.13
2013-3-12,49,45,39,49,45,39,100,100,100,30.05,29.93,6,1,6,0.01
2013-3-13,53,47,42,52,47,42,100,100,96,30.09,30.00,9,1,9,0.14
2013-3-14,51,46,42,49,45,42,100,98,93,30.07,29.96,11,1,12,0.05
2013-3-15,52,45,37,51,44,37,100,99,95,30.14,30.07,12,1,12,0.03
2013-3-16,44,41,34,44,40,34,100,99,95,30.09,29.83,16,3,18,0.03
2013-3-17,42,38,33,38,35,29,98,87,73,30.12,29.91,15,7,20,0.24
2013-3-18,46,38,33,40,36,32,100,90,64,30.20,30.02,18,6,22,0.02
2013-3-19,44,37,30,42,36,30,100,97,87,30.18,29.44,10,2,15,0.02
2013-3-20,49,41,32,48,40,31,100,98,88,29.94,29.23,13,3,13,0.04
2013-3-21,42,34,29,38,33,29,100,95,78,30.16,29.94,15,5,19,0.36
2013-3-22,42,35,28,36,32,28,99,88,71,30.33,30.16,13,4,13,0.02
2013-3-23,42,36,30,38,34,29,99,91,81,30.34,30.26,9,3,10,0.00
2013-3-24,44,37,30,39,35,30,99,93,82,30.26,30.09,9,3,9,0.00
2013-3-25,49,40,29,41,36,29,100,89,66,30.10,29.93,11,3,11,0.00
2013-3-26,53,44,35,45,40,34,99,85,65,29.98,29.94,8,2,8,0.00
2013-3-27,52,46,39,49,43,39,99,91,77,29.97,29.92,9,3,9,0.00
2013-3-28,53,46,39,50,44,39,100,96,84,30.12,29.97,8,2,8,0.01
2013-3-29,55,47,39,49,44,39,100,91,78,30.23,30.12,10,4,11,0.01
2013-3-30,57,48,35,50,43,-100,100,87,70,30.25,30.09,9,5,10,0.00
2013-3-31,61,51,40,49,44,38,95,78,59,30.09,29.91,9,4,10,0.00